Time;durP1;ratioP1;P1;durP2;ratioP2;P2;SDS_P1;SDS_P2;PMS_P1;PMS_P2;Temp;Humidity;BMP_temperature;BMP_pressure;BME280_temperature;BME280_humidity;BME280_pressure;Samples;Min_cycle;Max_cycle;Signal;HPM_P1;HPM_P2
2022/07/20 00:02:02;;;;;;;21.07;15.60;;;25.00;42.70;;;;;;5039815;28;20478;-67
2022/07/20 00:04:29;;;;;;;22.80;15.90;;;24.90;42.90;;;;;;5040733;28;20475;-67
2022/07/20 00:06:56;;;;;;;29.40;16.30;;;24.90;42.80;;;;;;5036928;28;20487;-67
2022/07/20 00:12:08;;;;;;;19.40;15.77;;;24.80;43.50;;;;;;5040923;28;21082;-66
2022/07/20 00:14:35;;;;;;;20.63;15.03;;;24.70;43.50;;;;;;5040731;28;20499;-67
2022/07/20 00:17:03;;;;;;;19.10;16.00;;;24.70;43.80;;;;;;5041820;28;20954;-67
2022/07/20 00:19:32;;;;;;;22.10;15.77;;;24.60;44.00;;;;;;5039075;28;20727;-67
2022/07/20 00:22:00;;;;;;;17.50;15.73;;;24.60;44.10;;;;;;5042311;28;20466;-68
2022/07/20 00:24:29;;;;;;;18.20;15.43;;;24.60;44.10;;;;;;5035144;28;20809;-68
2022/07/20 00:26:56;;;;;;;23.77;15.90;;;24.50;44.50;;;;;;5038566;28;20471;-67
2022/07/20 00:29:23;;;;;;;25.83;15.13;;;24.50;44.70;;;;;;5040550;28;20470;-67
2022/07/20 00:31:51;;;;;;;23.90;15.97;;;24.40;44.70;;;;;;5042369;28;20509;-67
2022/07/20 00:34:19;;;;;;;19.47;15.57;;;24.40;45.30;;;;;;5035042;28;20495;-67
2022/07/20 00:36:47;;;;;;;19.33;16.10;;;24.30;44.90;;;;;;5039194;28;20764;-67
2022/07/20 00:39:14;;;;;;;24.17;16.07;;;24.30;44.80;;;;;;5038535;28;20468;-66
2022/07/20 00:41:41;;;;;;;18.10;16.07;;;24.40;45.50;;;;;;5040638;28;20991;-67
2022/07/20 00:44:09;;;;;;;19.90;15.93;;;24.30;45.30;;;;;;5041234;28;20856;-67
2022/07/20 00:46:39;;;;;;;17.90;16.03;;;24.30;45.50;;;;;;5037725;28;20468;-67
2022/07/20 00:49:06;;;;;;;17.20;15.40;;;24.30;45.80;;;;;;5038975;28;20471;-67
2022/07/20 00:51:35;;;;;;;17.93;16.13;;;24.20;45.80;;;;;;5035707;28;20496;-67
2022/07/20 00:54:04;;;;;;;17.80;16.00;;;24.30;46.10;;;;;;5037781;28;20995;-67
2022/07/20 00:56:31;;;;;;;20.00;15.90;;;24.30;46.00;;;;;;5040543;28;20468;-67
2022/07/20 00:58:59;;;;;;;16.53;14.93;;;24.30;46.00;;;;;;5033154;28;20526;-67
2022/07/20 01:01:25;;;;;;;17.33;15.97;;;24.30;46.20;;;;;;5047751;28;20483;-67
2022/07/20 01:03:53;;;;;;;17.83;16.20;;;24.30;46.20;;;;;;5041768;28;20464;-67
2022/07/20 01:06:20;;;;;;;25.30;16.90;;;24.30;46.50;;;;;;5039135;28;20472;-67
2022/07/20 01:08:50;;;;;;;19.53;16.83;;;24.30;46.60;;;;;;5041579;28;20456;-66
2022/07/20 01:11:20;;;;;;;17.07;15.33;;;24.20;46.70;;;;;;5044694;28;20513;-67
2022/07/20 01:13:48;;;;;;;20.93;17.00;;;24.20;46.80;;;;;;5035675;28;20456;-67
2022/07/20 01:16:15;;;;;;;22.07;15.50;;;24.10;47.10;;;;;;5043937;28;20483;-67
2022/07/20 01:18:42;;;;;;;25.50;16.40;;;24.10;47.20;;;;;;5038776;28;20465;-67
2022/07/20 01:21:11;;;;;;;25.67;17.13;;;24.00;47.60;;;;;;5043077;28;20471;-68
2022/07/20 01:23:38;;;;;;;23.00;17.47;;;24.00;47.70;;;;;;5038585;28;20543;-67
2022/07/20 01:26:06;;;;;;;25.67;16.20;;;23.90;47.70;;;;;;5035436;28;20464;-67
2022/07/20 01:28:33;;;;;;;27.30;17.57;;;23.90;48.00;;;;;;5044837;28;20465;-67
2022/07/20 01:31:00;;;;;;;18.57;16.57;;;23.90;48.20;;;;;;5036731;28;20488;-68
2022/07/20 01:33:27;;;;;;;30.73;17.50;;;23.80;48.00;;;;;;5040496;28;20479;-67
2022/07/20 01:35:55;;;;;;;21.60;15.70;;;23.90;48.20;;;;;;5043748;28;20479;-67
2022/07/20 01:38:23;;;;;;;19.93;15.77;;;23.80;47.80;;;;;;5037162;28;21026;-67
2022/07/20 01:40:51;;;;;;;26.03;17.03;;;23.70;48.00;;;;;;5040338;28;20554;-66
2022/07/20 01:43:18;;;;;;;24.13;16.27;;;23.70;48.20;;;;;;5043909;28;20465;-68
2022/07/20 01:45:46;;;;;;;24.33;15.93;;;23.70;48.30;;;;;;5046874;28;20467;-67
2022/07/20 01:48:13;;;;;;;19.23;16.33;;;23.60;48.80;;;;;;5041588;28;20463;-67
2022/07/20 01:50:41;;;;;;;18.43;16.50;;;23.60;48.80;;;;;;5042368;28;20496;-67
2022/07/20 01:53:09;;;;;;;28.57;16.13;;;23.60;48.70;;;;;;5044647;28;20461;-67
2022/07/20 01:55:38;;;;;;;22.00;16.10;;;23.60;48.80;;;;;;5042108;28;20837;-67
2022/07/20 01:58:06;;;;;;;18.27;16.13;;;23.60;48.90;;;;;;5044629;28;20464;-67
2022/07/20 02:00:33;;;;;;;19.13;15.67;;;23.70;48.90;;;;;;5044995;28;20467;-66
2022/07/20 02:03:00;;;;;;;23.07;17.20;;;23.70;49.00;;;;;;5042107;28;20570;-67
2022/07/20 02:05:27;;;;;;;18.90;16.47;;;23.70;48.90;;;;;;5043392;28;20571;-66
2022/07/20 02:07:54;;;;;;;19.30;15.90;;;23.70;49.00;;;;;;5041159;28;20469;-67
2022/07/20 02:10:20;;;;;;;34.93;15.70;;;23.70;49.10;;;;;;5042522;28;20475;-67
2022/07/20 02:12:48;;;;;;;18.40;16.70;;;23.70;49.10;;;;;;5045061;28;20460;-67
2022/07/20 02:16:14;;;;;;;34.17;16.90;;;23.70;49.20;;;;;;5041722;28;20488;-66
2022/07/20 02:18:06;;;;;;;18.53;16.40;;;23.60;49.50;;;;;;5038031;28;20463;-67
2022/07/20 02:20:33;;;;;;;29.07;16.33;;;23.60;49.80;;;;;;5041696;28;20878;-67
2022/07/20 02:23:02;;;;;;;18.47;16.53;;;23.60;50.00;;;;;;5038843;28;20859;-66
2022/07/20 02:25:29;;;;;;;22.27;16.50;;;23.60;50.00;;;;;;5044707;28;20464;-67
2022/07/20 02:27:58;;;;;;;18.53;16.60;;;23.60;50.10;;;;;;5042945;28;20460;-66
2022/07/20 02:30:26;;;;;;;20.80;16.00;;;23.50;50.20;;;;;;5042024;28;20848;-67
2022/07/20 02:32:52;;;;;;;17.47;16.07;;;23.70;49.70;;;;;;5046234;28;20467;-66
2022/07/20 02:35:20;;;;;;;20.03;15.80;;;23.80;49.60;;;;;;5036887;28;20471;-67
2022/07/20 02:37:47;;;;;;;25.63;16.70;;;23.70;49.80;;;;;;5031424;28;20461;-67
2022/07/20 02:40:14;;;;;;;18.27;16.57;;;23.70;49.90;;;;;;5031851;28;20459;-68
2022/07/20 02:42:41;;;;;;;29.47;17.17;;;23.60;50.20;;;;;;5032078;28;20820;-66
2022/07/20 02:45:11;;;;;;;29.70;17.70;;;23.60;50.10;;;;;;5032855;28;20522;-67
2022/07/20 02:47:44;;;;;;;24.70;15.97;;;23.50;50.90;;;;;;5031891;28;20534;-66
2022/07/20 02:50:11;;;;;;;20.00;15.63;;;23.60;50.70;;;;;;5030525;28;20496;-67
2022/07/20 02:52:38;;;;;;;17.10;15.50;;;23.60;50.40;;;;;;5031121;28;20480;-68
2022/07/20 02:55:07;;;;;;;16.97;15.80;;;23.50;50.50;;;;;;5030946;28;20481;-68
2022/07/20 02:57:33;;;;;;;16.53;15.33;;;23.30;50.40;;;;;;5031335;28;20457;-67
2022/07/20 03:00:00;;;;;;;19.07;15.50;;;23.30;50.50;;;;;;5031800;28;20947;-67
2022/07/20 03:02:29;;;;;;;15.97;14.77;;;23.20;50.40;;;;;;5030162;28;20463;-67
2022/07/20 03:04:57;;;;;;;17.60;16.20;;;23.10;50.30;;;;;;5031906;28;20932;-67
2022/07/20 03:07:25;;;;;;;17.00;15.70;;;23.00;50.30;;;;;;5031814;28;20452;-67
2022/07/20 03:09:53;;;;;;;17.57;16.10;;;22.80;50.40;;;;;;5032171;28;20828;-67
2022/07/20 03:12:21;;;;;;;18.30;16.17;;;22.70;51.70;;;;;;5031906;28;20485;-67
2022/07/20 03:14:49;;;;;;;17.53;16.20;;;22.50;51.30;;;;;;5031513;28;20472;-67
2022/07/20 03:17:16;;;;;;;16.33;15.33;;;22.40;51.90;;;;;;5030802;28;20489;-67
2022/07/20 03:19:44;;;;;;;16.90;15.63;;;22.30;51.70;;;;;;5030954;28;20464;-67
2022/07/20 03:22:12;;;;;;;17.90;16.17;;;22.20;51.80;;;;;;5030164;28;20456;-66
2022/07/20 03:24:39;;;;;;;17.50;16.10;;;22.10;52.90;;;;;;5031520;28;20842;-67
2022/07/20 03:27:06;;;;;;;18.23;16.57;;;22.10;52.90;;;;;;5031215;28;20453;-68
2022/07/20 03:29:33;;;;;;;18.17;16.40;;;22.10;52.80;;;;;;5030940;28;20912;-67
2022/07/20 03:32:02;;;;;;;18.00;16.53;;;22.10;52.80;;;;;;5029793;28;20496;-67
2022/07/20 03:34:29;;;;;;;17.47;15.80;;;22.10;52.60;;;;;;5030745;28;20850;-67
2022/07/20 03:36:57;;;;;;;18.47;16.50;;;22.10;52.90;;;;;;5036778;28;20484;-66
2022/07/20 03:39:24;;;;;;;17.93;16.43;;;22.00;53.40;;;;;;5038656;28;20843;-68
2022/07/20 03:41:51;;;;;;;17.77;16.30;;;21.90;55.50;;;;;;5044625;28;20937;-68
2022/07/20 03:44:17;;;;;;;17.40;16.20;;;21.80;57.10;;;;;;5042507;28;21089;-66
2022/07/20 03:46:45;;;;;;;17.10;15.87;;;21.60;57.00;;;;;;5039307;28;20459;-67
2022/07/20 03:49:12;;;;;;;16.27;15.27;;;21.60;55.30;;;;;;5041383;28;20476;-67
2022/07/20 03:51:39;;;;;;;17.10;15.73;;;21.80;54.40;;;;;;5034420;28;20495;-67
2022/07/20 03:54:08;;;;;;;20.10;16.53;;;22.00;54.10;;;;;;5040066;28;20459;-67
2022/07/20 03:56:39;;;;;;;18.80;17.47;;;22.10;53.60;;;;;;5034630;28;20582;-67
2022/07/20 03:59:09;;;;;;;18.07;16.87;;;21.90;54.60;;;;;;5041401;28;20807;-67
2022/07/20 04:01:36;;;;;;;18.57;17.17;;;21.90;55.00;;;;;;5027579;28;20468;-66
2022/07/20 04:04:04;;;;;;;18.07;16.80;;;22.00;54.50;;;;;;5016487;28;20444;-67
2022/07/20 04:06:31;;;;;;;18.20;16.80;;;22.10;54.50;;;;;;5027241;28;20836;-67
2022/07/20 04:08:58;;;;;;;18.67;17.47;;;22.10;54.30;;;;;;5040569;28;20699;-68
2022/07/20 04:11:26;;;;;;;20.33;18.60;;;22.10;54.80;;;;;;5015324;28;21154;-67
2022/07/20 04:13:53;;;;;;;19.07;17.63;;;22.10;54.90;;;;;;5015015;28;20468;-67
2022/07/20 04:16:21;;;;;;;18.43;17.23;;;22.10;55.50;;;;;;5014576;28;20492;-67
2022/07/20 04:18:48;;;;;;;20.40;18.73;;;22.00;55.80;;;;;;5014871;28;20521;-68
2022/07/20 04:21:15;;;;;;;19.60;18.03;;;22.10;56.20;;;;;;5016780;28;20660;-66
2022/07/20 04:23:43;;;;;;;20.40;18.53;;;22.10;57.00;;;;;;5016744;28;20468;-67
2022/07/20 04:26:10;;;;;;;21.90;20.00;;;22.10;57.40;;;;;;5015242;28;20559;-67
2022/07/20 04:28:38;;;;;;;21.23;19.73;;;22.00;58.10;;;;;;5015460;28;20471;-68
2022/07/20 04:31:05;;;;;;;22.83;20.70;;;22.00;59.20;;;;;;5014607;28;20492;-67
2022/07/20 04:33:31;;;;;;;24.00;21.77;;;22.20;59.60;;;;;;5016128;28;20942;-66
2022/07/20 04:35:58;;;;;;;23.70;21.60;;;22.30;61.10;;;;;;5016629;28;20475;-67
2022/07/20 04:38:25;;;;;;;24.23;22.20;;;22.40;62.80;;;;;;5020107;28;20471;-67
2022/07/20 04:40:52;;;;;;;27.17;24.57;;;22.40;66.00;;;;;;5020005;28;21040;-68
2022/07/20 04:43:19;;;;;;;28.40;25.97;;;22.50;70.70;;;;;;5020080;28;20467;-67
2022/07/20 04:45:47;;;;;;;29.77;26.97;;;22.70;73.80;;;;;;5017437;28;20906;-67
2022/07/20 04:48:14;;;;;;;30.83;27.33;;;22.70;76.70;;;;;;5018247;28;20475;-68
2022/07/20 04:50:40;;;;;;;30.63;26.93;;;22.90;80.50;;;;;;5019626;28;20469;-67
2022/07/20 04:53:07;;;;;;;30.57;27.67;;;23.00;82.20;;;;;;5019954;28;20608;-67
2022/07/20 04:55:34;;;;;;;29.80;27.00;;;23.10;83.50;;;;;;5018807;28;20464;-68
2022/07/20 04:58:00;;;;;;;29.50;26.90;;;23.10;84.70;;;;;;5018665;28;20461;-67
2022/07/20 05:00:27;;;;;;;31.60;28.20;;;23.10;85.80;;;;;;5019971;28;20908;-67
2022/07/20 05:02:56;;;;;;;30.60;27.77;;;23.20;86.00;;;;;;5019472;28;20464;-67
2022/07/20 05:05:22;;;;;;;28.80;26.30;;;23.30;86.40;;;;;;5019996;28;20789;-67
2022/07/20 05:07:50;;;;;;;29.57;26.97;;;23.30;87.80;;;;;;5017887;28;20487;-67
2022/07/20 05:10:17;;;;;;;30.57;26.70;;;23.40;87.70;;;;;;5018597;28;20465;-67
2022/07/20 05:12:44;;;;;;;30.60;27.50;;;23.40;88.30;;;;;;5025544;28;20480;-67
2022/07/20 05:15:11;;;;;;;31.10;27.97;;;23.60;88.90;;;;;;5046811;28;20490;-67
2022/07/20 05:17:38;;;;;;;33.50;29.50;;;23.60;90.00;;;;;;5037692;28;20839;-66
2022/07/20 05:20:07;;;;;;;32.80;29.67;;;23.60;90.60;;;;;;5041920;28;20480;-66
2022/07/20 05:22:34;;;;;;;30.50;27.60;;;23.70;90.90;;;;;;5019838;28;20470;-68
2022/07/20 05:25:01;;;;;;;30.23;27.37;;;23.70;91.20;;;;;;5018809;28;20811;-68
2022/07/20 05:27:27;;;;;;;30.17;27.73;;;23.90;91.10;;;;;;5016889;28;20465;-68
2022/07/20 05:29:54;;;;;;;31.37;28.67;;;24.00;91.20;;;;;;5018476;28;20460;-67
2022/07/20 05:32:22;;;;;;;30.80;27.83;;;23.90;92.10;;;;;;5018083;28;21194;-67
2022/07/20 05:34:49;;;;;;;32.07;29.10;;;24.10;91.80;;;;;;5019746;28;21586;-67
2022/07/20 05:37:17;;;;;;;32.53;29.17;;;24.20;91.70;;;;;;5017863;28;20483;-67
2022/07/20 05:39:44;;;;;;;31.77;28.70;;;24.30;92.00;;;;;;5019488;28;20464;-67
2022/07/20 05:42:10;;;;;;;33.43;30.30;;;24.40;92.00;;;;;;5018500;28;20715;-67
2022/07/20 05:44:38;;;;;;;38.33;31.20;;;24.40;92.60;;;;;;5020922;28;20468;-66
2022/07/20 05:47:06;;;;;;;31.80;28.50;;;24.50;92.90;;;;;;5034403;28;20738;-67
2022/07/20 05:49:34;;;;;;;36.13;30.80;;;24.50;93.00;;;;;;5018660;28;20472;-67
2022/07/20 05:52:01;;;;;;;35.47;31.23;;;24.50;93.70;;;;;;5016818;28;20483;-68
2022/07/20 05:54:29;;;;;;;33.47;30.43;;;24.50;94.10;;;;;;5019063;28;20480;-68
2022/07/20 05:56:56;;;;;;;35.17;30.83;;;24.50;95.00;;;;;;5018781;28;20471;-68
2022/07/20 05:59:23;;;;;;;34.17;30.77;;;24.70;94.90;;;;;;5018163;28;20468;-67
2022/07/20 06:01:50;;;;;;;37.83;31.33;;;24.80;94.80;;;;;;5014996;28;20482;-67
2022/07/20 06:04:17;;;;;;;33.63;30.40;;;25.00;94.90;;;;;;5017009;28;20468;-67
2022/07/20 06:06:43;;;;;;;36.57;32.83;;;24.90;95.30;;;;;;5016660;28;20452;-67
2022/07/20 06:09:10;;;;;;;34.63;31.00;;;25.00;95.60;;;;;;5015839;28;20465;-67
2022/07/20 06:11:38;;;;;;;35.77;32.20;;;24.90;95.50;;;;;;5017004;28;21017;-68
2022/07/20 06:14:06;;;;;;;35.53;32.40;;;24.80;96.60;;;;;;5016844;28;20826;-68
2022/07/20 06:16:32;;;;;;;33.70;30.47;;;25.00;96.40;;;;;;5015437;28;20491;-67
2022/07/20 06:19:00;;;;;;;34.97;31.27;;;24.90;96.60;;;;;;5015547;28;20467;-67
2022/07/20 06:21:27;;;;;;;37.60;32.07;;;25.00;97.00;;;;;;5016394;28;20464;-68
2022/07/20 06:23:54;;;;;;;35.00;31.20;;;25.10;96.70;;;;;;5016124;28;20511;-68
2022/07/20 06:26:22;;;;;;;34.77;31.30;;;25.20;97.00;;;;;;5016832;28;20824;-67
2022/07/20 06:28:51;;;;;;;35.27;31.87;;;25.30;96.60;;;;;;5016235;28;20768;-68
2022/07/20 06:31:17;;;;;;;36.83;32.13;;;25.60;96.80;;;;;;5015950;28;20469;-68
2022/07/20 06:33:44;;;;;;;35.37;31.87;;;25.70;97.00;;;;;;5019445;28;20468;-67
2022/07/20 06:36:11;;;;;;;34.40;31.33;;;25.80;96.90;;;;;;5035987;28;21452;-67
2022/07/20 06:38:38;;;;;;;34.37;31.03;;;25.90;96.20;;;;;;5035224;28;20970;-68
2022/07/20 06:41:06;;;;;;;34.97;31.47;;;25.80;96.10;;;;;;5015377;28;21107;-68
2022/07/20 06:43:33;;;;;;;33.57;30.70;;;25.80;96.00;;;;;;5013086;28;20479;-67
2022/07/20 06:46:01;;;;;;;34.70;31.40;;;26.00;95.80;;;;;;5014332;28;20467;-67
2022/07/20 06:48:28;;;;;;;35.80;31.93;;;26.00;95.10;;;;;;5015473;28;20857;-67
2022/07/20 06:50:55;;;;;;;35.10;31.60;;;26.20;95.10;;;;;;5014617;28;20733;-68
2022/07/20 06:53:23;;;;;;;35.47;32.10;;;26.30;94.20;;;;;;5014468;28;20576;-68
2022/07/20 06:55:49;;;;;;;34.17;30.83;;;26.50;94.30;;;;;;5015247;28;20464;-67
2022/07/20 06:58:16;;;;;;;32.57;29.43;;;26.70;93.30;;;;;;5014344;28;20511;-68
2022/07/20 07:00:43;;;;;;;32.63;29.73;;;26.80;92.10;;;;;;5013584;28;20486;-67
2022/07/20 07:03:12;;;;;;;32.70;29.63;;;26.80;91.60;;;;;;5016499;28;21168;-67
2022/07/20 07:05:39;;;;;;;31.70;29.03;;;26.80;91.70;;;;;;5015279;28;20471;-68
2022/07/20 07:08:08;;;;;;;33.73;30.40;;;26.80;91.70;;;;;;5016305;28;20467;-68
2022/07/20 07:10:34;;;;;;;31.70;28.33;;;27.00;91.20;;;;;;5016231;28;20483;-67
2022/07/20 07:13:01;;;;;;;32.97;30.30;;;27.00;91.10;;;;;;5015780;28;20502;-67
2022/07/20 07:15:28;;;;;;;33.73;30.47;;;26.80;91.50;;;;;;5014196;28;20531;-68
2022/07/20 07:17:55;;;;;;;32.37;29.37;;;26.90;91.60;;;;;;5015568;28;20559;-67
2022/07/20 07:20:23;;;;;;;32.73;29.73;;;26.90;92.00;;;;;;5014536;28;20471;-67
2022/07/20 07:22:50;;;;;;;35.00;31.67;;;26.70;92.90;;;;;;5014865;28;20829;-68
2022/07/20 07:25:17;;;;;;;33.13;30.13;;;26.40;93.70;;;;;;5016105;28;20475;-67
2022/07/20 07:27:44;;;;;;;34.37;31.37;;;26.70;93.30;;;;;;5015662;28;20613;-68
2022/07/20 07:30:12;;;;;;;33.70;30.00;;;26.80;93.70;;;;;;5015292;28;21045;-67
2022/07/20 07:32:39;;;;;;;32.53;28.90;;;26.90;93.30;;;;;;5016201;28;20491;-67
2022/07/20 07:35:07;;;;;;;33.63;30.10;;;27.00;93.60;;;;;;5015256;28;20559;-67
2022/07/20 07:37:37;;;;;;;36.53;30.40;;;26.90;94.30;;;;;;5015289;28;20492;-67
2022/07/20 07:40:05;;;;;;;34.23;31.10;;;26.70;96.00;;;;;;5014452;28;20896;-67
2022/07/20 07:42:32;;;;;;;33.80;30.27;;;26.60;96.60;;;;;;5012690;28;20461;-67
2022/07/20 07:45:04;;;;;;;34.13;30.63;;;26.60;97.40;;;;;;5035912;28;20471;-67
2022/07/20 07:47:31;;;;;;;33.47;30.07;;;26.60;97.60;;;;;;5036430;28;20464;-67
2022/07/20 07:49:58;;;;;;;36.03;31.87;;;26.40;97.90;;;;;;5038196;28;20457;-68
2022/07/20 07:52:25;;;;;;;34.43;30.70;;;26.20;98.70;;;;;;5014207;28;20495;-67
2022/07/20 07:54:54;;;;;;;34.60;31.60;;;26.20;99.30;;;;;;5014209;28;20465;-67
2022/07/20 07:57:20;;;;;;;35.50;31.70;;;26.20;99.90;;;;;;5013315;28;20844;-68
2022/07/20 07:59:48;;;;;;;35.20;31.83;;;26.30;99.50;;;;;;5014765;28;20457;-68
2022/07/20 08:02:15;;;;;;;34.23;31.10;;;26.30;99.90;;;;;;5014494;28;20472;-68
2022/07/20 08:04:42;;;;;;;35.70;31.27;;;26.10;99.90;;;;;;5014571;28;20546;-68
2022/07/20 08:07:09;;;;;;;31.40;28.80;;;26.10;99.90;;;;;;5015112;28;20479;-68
2022/07/20 08:09:36;;;;;;;33.70;30.40;;;26.30;98.60;;;;;;5022149;28;20455;-67
2022/07/20 08:12:04;;;;;;;34.73;31.40;;;26.60;97.90;;;;;;5042839;28;20463;-66
2022/07/20 08:14:32;;;;;;;34.40;30.87;;;26.90;98.20;;;;;;5046113;28;20492;-67
2022/07/20 08:17:00;;;;;;;35.53;31.80;;;26.90;97.30;;;;;;5048479;28;20459;-67
2022/07/20 08:19:26;;;;;;;34.07;31.23;;;26.80;97.70;;;;;;5021265;28;20469;-67
2022/07/20 08:21:53;;;;;;;33.63;30.57;;;26.80;97.60;;;;;;5018207;28;20939;-67
2022/07/20 08:24:21;;;;;;;34.50;31.23;;;27.00;97.50;;;;;;5018528;28;20476;-68
2022/07/20 08:26:48;;;;;;;33.63;30.23;;;27.40;95.70;;;;;;5035850;28;20467;-68
2022/07/20 08:29:17;;;;;;;32.20;29.33;;;27.70;94.20;;;;;;5030861;28;20461;-67
2022/07/20 08:31:44;;;;;;;36.33;30.90;;;28.00;94.30;;;;;;5011969;28;20467;-68
2022/07/20 08:34:11;;;;;;;33.73;30.23;;;28.00;93.60;;;;;;5015444;28;20484;-66
2022/07/20 08:36:38;;;;;;;33.73;30.47;;;27.70;93.10;;;;;;5020953;28;20487;-68
2022/07/20 08:39:06;;;;;;;33.90;31.00;;;27.60;94.20;;;;;;5012507;28;20463;-68
2022/07/20 08:41:34;;;;;;;35.60;29.37;;;28.00;93.60;;;;;;5034031;28;20815;-68
2022/07/20 08:44:01;;;;;;;34.07;30.87;;;28.50;92.80;;;;;;5033477;28;20464;-68
2022/07/20 08:46:31;;;;;;;32.07;29.00;;;29.10;91.20;;;;;;5013454;28;20459;-68
2022/07/20 08:48:58;;;;;;;33.87;30.67;;;29.00;90.70;;;;;;5011501;28;20569;-69
2022/07/20 08:51:25;;;;;;;33.93;31.00;;;28.40;92.60;;;;;;5009946;28;20933;-68
2022/07/20 08:53:53;;;;;;;34.90;31.93;;;28.30;92.00;;;;;;5017149;28;20967;-67
2022/07/20 08:56:20;;;;;;;34.67;31.23;;;28.10;92.50;;;;;;5010918;28;20462;-68
2022/07/20 08:58:47;;;;;;;33.80;30.60;;;27.60;93.00;;;;;;5009911;28;20940;-68
2022/07/20 09:01:15;;;;;;;34.33;30.90;;;27.60;93.40;;;;;;5011456;28;20988;-67
2022/07/20 09:03:44;;;;;;;36.00;31.97;;;27.60;93.50;;;;;;5010768;28;20621;-68
2022/07/20 09:06:12;;;;;;;32.50;29.50;;;27.40;94.00;;;;;;5032280;28;20526;-67
2022/07/20 09:09:00;;;;;;;33.07;30.10;;;27.50;93.90;;;;;;5028956;28;20474;-68
2022/07/20 09:11:28;;;;;;;34.10;30.90;;;27.20;94.80;;;;;;5010685;28;20567;-67
2022/07/20 09:13:55;;;;;;;33.40;30.13;;;27.10;95.00;;;;;;5009706;28;20574;-67
2022/07/20 09:16:32;;;;;;;32.90;30.00;;;27.20;95.30;;;;;;5010170;28;20558;-68
2022/07/20 09:19:00;;;;;;;33.00;29.70;;;27.60;94.90;;;;;;5010691;28;20499;-68
2022/07/20 09:21:31;;;;;;;31.07;28.30;;;27.90;94.70;;;;;;5010085;28;20542;-68
2022/07/20 09:24:03;;;;;;;34.80;31.60;;;28.80;94.10;;;;;;5011404;28;20468;-68
2022/07/20 09:26:31;;;;;;;32.00;28.43;;;30.70;90.40;;;;;;5012374;28;20472;-68
2022/07/20 09:28:59;;;;;;;34.30;28.53;;;31.30;85.40;;;;;;5010681;28;20533;-68
2022/07/20 09:31:29;;;;;;;32.33;29.57;;;32.40;81.20;;;;;;5013193;28;21014;-68
2022/07/20 09:33:58;;;;;;;29.63;27.33;;;32.80;79.20;;;;;;5012919;28;21700;-68
2022/07/20 09:36:29;;;;;;;29.23;26.63;;;32.70;76.10;;;;;;5036639;28;20486;-68
2022/07/20 09:39:07;;;;;;;30.47;27.77;;;31.90;74.60;;;;;;5035565;28;20468;-69
2022/07/20 09:41:35;;;;;;;29.40;26.80;;;31.90;73.30;;;;;;5034204;28;20547;-68
2022/07/20 09:44:05;;;;;;;29.83;27.60;;;31.50;73.60;;;;;;5013965;28;20463;-68
2022/07/20 09:46:34;;;;;;;28.10;26.00;;;32.00;72.70;;;;;;5011480;28;20704;-68
2022/07/20 09:49:04;;;;;;;27.83;25.83;;;32.50;70.60;;;;;;5012267;28;21481;-68
2022/07/20 09:51:35;;;;;;;25.00;23.10;;;33.00;68.00;;;;;;5011371;28;21032;-67
2022/07/20 09:54:04;;;;;;;27.37;24.50;;;32.80;65.90;;;;;;5009915;28;20534;-68
2022/07/20 09:56:31;;;;;;;26.50;24.07;;;32.90;65.80;;;;;;5011401;28;20460;-68
2022/07/20 09:59:00;;;;;;;27.27;25.07;;;32.70;64.60;;;;;;5011051;28;20963;-69
2022/07/20 10:01:28;;;;;;;25.87;23.83;;;32.60;64.00;;;;;;5012567;28;20559;-69
2022/07/20 10:03:56;;;;;;;23.17;21.57;;;32.30;64.50;;;;;;5012070;28;20538;-68
2022/07/20 10:06:25;;;;;;;23.03;21.43;;;32.60;62.30;;;;;;5010233;28;20475;-68
2022/07/20 10:08:54;;;;;;;24.40;22.50;;;32.00;60.90;;;;;;5010534;28;21504;-68
2022/07/20 10:11:23;;;;;;;24.47;22.23;;;31.30;63.30;;;;;;5011038;28;20473;-68
2022/07/20 10:13:52;;;;;;;25.90;23.70;;;31.40;65.30;;;;;;5011413;28;21318;-67
2022/07/20 10:16:27;;;;;;;25.17;23.37;;;31.80;64.40;;;;;;5011840;28;20491;-67
2022/07/20 10:18:54;;;;;;;25.63;23.23;;;31.40;62.80;;;;;;5019274;28;20466;-68
2022/07/20 10:21:36;;;;;;;25.57;23.77;;;30.70;66.80;;;;;;5030359;28;21203;-68
2022/07/20 10:24:18;;;;;;;25.13;22.50;;;31.00;66.30;;;;;;5025365;28;20464;-67
2022/07/20 10:26:46;;;;;;;24.87;23.10;;;31.30;63.70;;;;;;5009001;28;20842;-67
2022/07/20 10:29:27;;;;;;;24.93;22.83;;;31.60;63.90;;;;;;5010063;28;21226;-69
2022/07/20 10:31:56;;;;;;;25.93;23.60;;;32.10;63.30;;;;;;5020808;28;20463;-68
2022/07/20 10:34:44;;;;;;;24.10;22.37;;;32.70;63.30;;;;;;5033337;28;21032;-68
2022/07/20 10:37:24;;;;;;;25.80;22.53;;;32.90;61.30;;;;;;5031338;28;20496;-68
2022/07/20 10:39:53;;;;;;;24.50;22.60;;;32.90;60.90;;;;;;5031353;28;20459;-67
2022/07/20 10:42:22;;;;;;;25.23;23.13;;;33.20;60.00;;;;;;5014491;28;20472;-68
2022/07/20 10:44:49;;;;;;;24.50;22.47;;;33.70;59.40;;;;;;5011327;28;20460;-68
2022/07/20 10:47:39;;;;;;;24.47;22.67;;;33.90;58.10;;;;;;5011327;28;20452;-68
2022/07/20 10:50:07;;;;;;;24.37;22.17;;;33.20;58.40;;;;;;5011159;28;20468;-68
2022/07/20 10:52:35;;;;;;;24.50;22.53;;;33.20;58.60;;;;;;5009770;28;20558;-69
2022/07/20 10:55:05;;;;;;;23.80;22.17;;;33.40;58.90;;;;;;5010585;28;20514;-68
2022/07/20 10:57:32;;;;;;;22.33;20.50;;;33.90;58.40;;;;;;5010279;28;21199;-68
2022/07/20 11:00:09;;;;;;;21.70;20.10;;;34.40;55.70;;;;;;5006288;28;20727;-69
2022/07/20 11:02:36;;;;;;;21.80;20.00;;;34.20;54.50;;;;;;5009700;28;20875;-68
2022/07/20 11:05:04;;;;;;;22.23;20.60;;;34.50;53.60;;;;;;5010237;28;21049;-68
2022/07/20 11:07:32;;;;;;;22.60;20.70;;;34.30;54.70;;;;;;5010156;28;20468;-68
2022/07/20 11:10:00;;;;;;;22.67;21.07;;;34.30;54.70;;;;;;5011009;28;20479;-69
2022/07/20 11:12:30;;;;;;;21.27;19.70;;;34.20;54.10;;;;;;5009010;28;21059;-68
2022/07/20 11:14:58;;;;;;;23.20;21.30;;;34.60;55.00;;;;;;5009953;28;21556;-68
2022/07/20 11:17:24;;;;;;;22.60;20.70;;;35.10;52.40;;;;;;5009734;28;20925;-69
2022/07/20 11:19:51;;;;;;;21.70;20.20;;;35.40;53.60;;;;;;5010866;28;20460;-68
2022/07/20 11:22:19;;;;;;;22.77;21.13;;;34.80;53.00;;;;;;5010110;28;20602;-68
2022/07/20 11:24:55;;;;;;;21.83;20.20;;;35.00;53.60;;;;;;5008493;28;20458;-69
2022/07/20 11:27:22;;;;;;;22.50;20.80;;;35.20;51.50;;;;;;5009325;28;20507;-69
2022/07/20 11:29:52;;;;;;;21.30;19.97;;;36.30;50.90;;;;;;5009550;28;21107;-69
2022/07/20 11:32:20;;;;;;;23.03;21.43;;;36.30;50.70;;;;;;5008415;28;21093;-69
2022/07/20 11:34:52;;;;;;;22.40;20.80;;;35.90;50.50;;;;;;5021413;28;20498;-68
2022/07/20 11:37:21;;;;;;;22.20;20.33;;;34.80;51.40;;;;;;5031570;28;20855;-68
2022/07/20 11:39:48;;;;;;;21.33;19.83;;;34.60;51.80;;;;;;5031691;28;20491;-68
2022/07/20 11:42:17;;;;;;;22.17;20.80;;;34.70;50.40;;;;;;5027210;28;20465;-68
2022/07/20 11:45:00;;;;;;;22.57;20.70;;;34.90;50.60;;;;;;5008628;28;20456;-69
2022/07/20 11:47:28;;;;;;;22.87;21.10;;;35.10;50.40;;;;;;5009292;28;20499;-68
2022/07/20 11:50:06;;;;;;;21.37;19.87;;;34.70;50.10;;;;;;5008032;28;20538;-69
2022/07/20 11:52:41;;;;;;;23.17;21.33;;;34.30;50.50;;;;;;5008621;28;20495;-68
2022/07/20 11:55:09;;;;;;;22.00;20.40;;;34.90;50.80;;;;;;5007957;28;20495;-69
2022/07/20 11:57:36;;;;;;;21.30;20.10;;;35.20;50.40;;;;;;5007788;28;20998;-69
2022/07/20 12:00:06;;;;;;;21.50;19.70;;;34.60;49.90;;;;;;5009165;28;21228;-69
2022/07/20 12:02:33;;;;;;;23.80;21.37;;;34.00;50.50;;;;;;5006123;28;20592;-69
2022/07/20 12:05:00;;;;;;;22.57;20.70;;;34.70;50.60;;;;;;5008127;28;20555;-68
2022/07/20 12:10:34;;;;;;;22.10;20.40;;;34.90;50.40;;;;;;5009386;28;20466;-69
2022/07/20 12:13:02;;;;;;;21.23;19.83;;;34.70;50.30;;;;;;5008564;28;21042;-68
2022/07/20 12:15:30;;;;;;;22.00;20.50;;;35.30;50.90;;;;;;5009616;28;20495;-69
2022/07/20 12:17:57;;;;;;;21.30;19.73;;;35.80;49.00;;;;;;5008946;28;20963;-68
2022/07/20 12:20:25;;;;;;;21.97;20.60;;;36.30;48.20;;;;;;5009183;28;20499;-69
2022/07/20 12:22:54;;;;;;;21.70;20.07;;;36.40;47.70;;;;;;5010273;28;20456;-70
2022/07/20 12:25:21;;;;;;;22.20;20.33;;;36.20;47.70;;;;;;5009037;28;20464;-69
2022/07/20 12:27:48;;;;;;;21.77;20.23;;;36.30;47.10;;;;;;5009402;28;20472;-70
2022/07/20 12:30:27;;;;;;;21.80;20.00;;;35.60;47.80;;;;;;5008188;28;20468;-68
2022/07/20 12:33:07;;;;;;;21.90;20.60;;;35.40;48.40;;;;;;5007636;28;21113;-68
2022/07/20 12:35:35;;;;;;;21.57;20.17;;;35.50;48.80;;;;;;5007145;28;20487;-69
2022/07/20 12:38:02;;;;;;;21.67;20.07;;;35.50;49.20;;;;;;5007878;28;20453;-69
2022/07/20 12:40:34;;;;;;;22.17;20.60;;;35.70;48.90;;;;;;5007079;28;20463;-69